Time,TemperatureF,DewpointF,PressureIn,WindDirection,WindDirectionDegrees,WindSpeedMPH,WindSpeedGustMPH,Humidity,HourlyPrecipIn,Conditions,Clouds,dailyrainin,SolarRadiationWatts/m^2,SoftwareType,DateUTC
2013-02-25 00:01:00,58.0,50.0,-100.00,SSE,155,4.0,11.0,76,0.00,,,0.00,0.000000,,2013-02-25 10:01:00,
2013-02-25 00:11:00,58.0,50.0,-100.00,SSE,155,4.0,11.0,76,0.00,,,0.00,0.000000,,2013-02-25 10:11:00,
2013-02-25 00:21:00,58.0,50.0,-100.00,SSE,155,4.0,11.0,76,0.00,,,0.00,0.000000,,2013-02-25 10:21:00,
2013-02-25 00:31:00,58.0,50.0,-100.00,SSE,155,4.0,11.0,76,0.00,,,0.00,0.000000,,2013-02-25 10:31:00,
2013-02-25 01:01:00,58.0,48.0,-100.00,ESE,117,6.0,10.0,70,0.00,,,-99.99,0.000000,,2013-02-25 11:01:00,
2013-02-25 01:11:00,58.0,48.0,-100.00,ESE,117,6.0,10.0,70,0.00,,,-99.99,0.000000,,2013-02-25 11:11:00,
2013-02-25 01:21:00,58.0,48.0,-100.00,ESE,117,6.0,10.0,70,0.00,,,-99.99,0.000000,,2013-02-25 11:21:00,
2013-02-25 01:31:00,58.0,48.0,-100.00,ESE,117,6.0,10.0,70,0.00,,,-99.99,0.000000,,2013-02-25 11:31:00,
2013-02-25 01:52:00,56.0,47.0,-100.00,SSE,163,5.0,12.0,71,0.00,,,0.00,0.000000,,2013-02-25 11:52:00,
2013-02-25 02:01:00,56.0,47.0,-100.00,SSE,163,5.0,12.0,71,0.00,,,0.00,0.000000,,2013-02-25 12:01:00,
2013-02-25 02:11:00,56.0,47.0,-100.00,SSE,163,5.0,12.0,71,0.00,,,0.00,0.000000,,2013-02-25 12:11:00,
2013-02-25 02:21:00,56.0,47.0,-100.00,SSE,163,5.0,12.0,71,0.00,,,0.00,0.000000,,2013-02-25 12:21:00,
2013-02-25 02:32:00,56.0,47.0,-100.00,SSE,163,5.0,12.0,71,0.00,,,0.00,0.000000,,2013-02-25 12:32:00,
2013-02-25 03:02:00,56.0,50.0,-100.00,SSE,166,5.0,8.0,79,0.00,,,0.00,0.000000,,2013-02-25 13:02:00,
2013-02-25 03:12:00,56.0,50.0,-100.00,SSE,166,5.0,8.0,79,0.00,,,0.00,0.000000,,2013-02-25 13:12:00,
2013-02-25 03:22:00,56.0,50.0,-100.00,SSE,166,5.0,8.0,79,0.00,,,0.00,0.000000,,2013-02-25 13:22:00,
2013-02-25 03:31:00,56.0,50.0,-100.00,SSE,166,5.0,8.0,79,0.00,,,0.00,0.000000,,2013-02-25 13:31:00,
2013-02-25 03:52:00,55.0,47.0,-100.00,SE,144,4.0,8.0,73,0.00,,,0.00,0.000000,,2013-02-25 13:52:00,
2013-02-25 04:02:00,55.0,47.0,-100.00,SE,144,4.0,8.0,73,0.00,,,0.00,0.000000,,2013-02-25 14:02:00,
2013-02-25 04:15:00,55.0,47.0,-100.00,SE,144,4.0,8.0,73,0.00,,,0.00,0.000000,,2013-02-25 14:15:00,
2013-02-25 04:21:00,55.0,47.0,-100.00,SE,144,4.0,8.0,73,0.00,,,0.00,0.000000,,2013-02-25 14:21:00,
2013-02-25 04:31:00,55.0,47.0,-100.00,SE,144,4.0,8.0,73,0.00,,,0.00,0.000000,,2013-02-25 14:31:00,
2013-02-25 05:02:00,54.0,46.0,-100.00,SSE,153,6.0,8.0,75,0.00,,,0.00,0.000000,,2013-02-25 15:02:00,
2013-02-25 05:11:00,54.0,46.0,-100.00,SSE,153,6.0,8.0,75,0.00,,,0.00,0.000000,,2013-02-25 15:11:00,
2013-02-25 05:21:00,54.0,46.0,-100.00,SSE,153,6.0,8.0,75,0.00,,,0.00,0.000000,,2013-02-25 15:21:00,
2013-02-25 05:32:00,54.0,46.0,-100.00,SSE,153,6.0,8.0,75,0.00,,,0.00,0.000000,,2013-02-25 15:32:00,
2013-02-25 06:01:00,55.0,47.0,-100.00,SSE,160,6.0,8.0,74,0.00,,,0.00,0.000000,,2013-02-25 16:01:00,
2013-02-25 06:11:00,55.0,47.0,-100.00,SSE,160,6.0,8.0,74,0.00,,,0.00,0.000000,,2013-02-25 16:11:00,
2013-02-25 06:21:00,55.0,47.0,-100.00,SSE,160,6.0,8.0,74,0.00,,,0.00,0.000000,,2013-02-25 16:21:00,
2013-02-25 06:31:00,55.0,47.0,-100.00,SSE,160,6.0,8.0,74,0.00,,,0.00,0.000000,,2013-02-25 16:31:00,
2013-02-25 07:01:00,54.0,49.0,-100.00,SE,126,3.0,9.0,84,0.00,,,0.00,0.000000,,2013-02-25 17:01:00,
2013-02-25 07:11:00,54.0,49.0,-100.00,SE,126,3.0,9.0,84,0.00,,,0.00,0.000000,,2013-02-25 17:11:00,
2013-02-25 07:21:00,54.0,49.0,-100.00,SE,126,3.0,9.0,84,0.00,,,0.00,0.000000,,2013-02-25 17:21:00,
2013-02-25 07:31:00,54.0,49.0,-100.00,SE,126,3.0,9.0,84,0.00,,,0.00,0.000000,,2013-02-25 17:31:00,
2013-02-25 08:01:00,59.0,53.0,-100.00,SE,130,3.0,9.0,80,0.00,,,-99.99,50.000000,,2013-02-25 18:01:00,
2013-02-25 08:12:00,59.0,53.0,-100.00,SE,130,3.0,9.0,80,0.00,,,-99.99,50.000000,,2013-02-25 18:12:00,
2013-02-25 08:21:00,59.0,53.0,-100.00,SE,130,3.0,9.0,80,0.00,,,-99.99,50.000000,,2013-02-25 18:21:00,
2013-02-25 08:32:00,59.0,53.0,-100.00,SE,130,3.0,9.0,80,0.00,,,-99.99,50.000000,,2013-02-25 18:32:00,
2013-02-25 09:01:00,72.0,54.0,-100.00,NNE,15,1.0,6.0,53,0.00,,,0.00,330.000000,,2013-02-25 19:01:00,
2013-02-25 09:11:00,72.0,54.0,-100.00,NNE,15,1.0,6.0,53,0.00,,,0.00,330.000000,,2013-02-25 19:11:00,
2013-02-25 09:21:00,72.0,54.0,-100.00,NNE,15,1.0,6.0,53,0.00,,,0.00,330.000000,,2013-02-25 19:21:00,
2013-02-25 09:31:00,72.0,54.0,-100.00,NNE,15,1.0,6.0,53,0.00,,,0.00,330.000000,,2013-02-25 19:31:00,
2013-02-25 10:01:00,70.0,54.0,-100.00,NW,320,4.0,11.0,57,0.00,,,0.00,634.000000,,2013-02-25 20:01:00,
2013-02-25 10:11:00,70.0,54.0,-100.00,NW,320,4.0,11.0,57,0.00,,,0.00,634.000000,,2013-02-25 20:11:00,
2013-02-25 10:21:00,70.0,54.0,-100.00,NW,320,4.0,11.0,57,0.00,,,0.00,634.000000,,2013-02-25 20:21:00,
2013-02-25 10:31:00,70.0,54.0,-100.00,NW,320,4.0,11.0,57,0.00,,,0.00,634.000000,,2013-02-25 20:31:00,
2013-02-25 11:01:00,74.0,52.0,-100.00,WSW,251,7.0,13.0,46,0.00,,,0.00,909.000000,,2013-02-25 21:01:00,
2013-02-25 11:11:00,74.0,52.0,-100.00,WSW,251,7.0,13.0,46,0.00,,,0.00,909.000000,,2013-02-25 21:11:00,
2013-02-25 11:21:00,74.0,52.0,-100.00,WSW,251,7.0,13.0,46,0.00,,,0.00,909.000000,,2013-02-25 21:21:00,
2013-02-25 11:31:00,74.0,52.0,-100.00,WSW,251,7.0,13.0,46,0.00,,,0.00,909.000000,,2013-02-25 21:31:00,
2013-02-25 12:01:00,78.0,51.0,-100.00,North,353,6.0,19.0,39,0.00,,,0.00,1116.000000,,2013-02-25 22:01:00,
2013-02-25 12:11:00,78.0,51.0,-100.00,North,353,6.0,19.0,39,0.00,,,0.00,1116.000000,,2013-02-25 22:11:00,
2013-02-25 12:21:00,78.0,51.0,-100.00,North,353,6.0,19.0,39,0.00,,,0.00,1116.000000,,2013-02-25 22:21:00,
2013-02-25 12:31:00,78.0,51.0,-100.00,North,353,6.0,19.0,39,0.00,,,0.00,1116.000000,,2013-02-25 22:31:00,
2013-02-25 12:52:00,75.0,55.0,-100.00,WNW,290,9.0,21.0,50,0.00,,,0.00,977.000000,,2013-02-25 22:52:00,
2013-02-25 13:01:00,75.0,55.0,-100.00,WNW,290,9.0,21.0,50,0.00,,,0.00,977.000000,,2013-02-25 23:01:00,
2013-02-25 13:11:00,75.0,55.0,-100.00,WNW,290,9.0,21.0,50,0.00,,,0.00,977.000000,,2013-02-25 23:11:00,
2013-02-25 13:22:00,75.0,55.0,-100.00,WNW,290,9.0,21.0,50,0.00,,,0.00,977.000000,,2013-02-25 23:22:00,
2013-02-25 13:31:00,75.0,55.0,-100.00,WNW,290,9.0,21.0,50,0.00,,,0.00,977.000000,,2013-02-25 23:31:00,
2013-02-25 14:01:00,76.0,58.0,-100.00,West,275,10.0,25.0,54,0.00,,,0.00,864.000000,,2013-02-26 00:01:00,
2013-02-25 14:11:00,76.0,58.0,-100.00,West,275,10.0,25.0,54,0.00,,,0.00,864.000000,,2013-02-26 00:11:00,
2013-02-25 14:21:00,76.0,58.0,-100.00,West,275,10.0,25.0,54,0.00,,,0.00,864.000000,,2013-02-26 00:21:00,
2013-02-25 14:32:00,76.0,58.0,-100.00,West,275,10.0,25.0,54,0.00,,,0.00,864.000000,,2013-02-26 00:32:00,
2013-02-25 15:02:00,73.0,56.0,-100.00,NW,324,8.0,23.0,56,0.00,,,0.00,671.000000,,2013-02-26 01:02:00,
2013-02-25 15:11:00,73.0,56.0,-100.00,NW,324,8.0,23.0,56,0.00,,,0.00,671.000000,,2013-02-26 01:11:00,
2013-02-25 15:21:00,73.0,56.0,-100.00,NW,324,8.0,23.0,56,0.00,,,0.00,671.000000,,2013-02-26 01:21:00,
2013-02-25 15:31:00,73.0,56.0,-100.00,NW,324,8.0,23.0,56,0.00,,,0.00,671.000000,,2013-02-26 01:31:00,
2013-02-25 16:01:00,71.0,55.0,-100.00,NNE,28,19.0,36.0,58,0.00,,,0.00,718.000000,,2013-02-26 02:01:00,
2013-02-25 16:11:00,71.0,55.0,-100.00,NNE,28,19.0,36.0,58,0.00,,,0.00,718.000000,,2013-02-26 02:11:00,
2013-02-25 16:21:00,71.0,55.0,-100.00,NNE,28,19.0,36.0,58,0.00,,,0.00,718.000000,,2013-02-26 02:21:00,
2013-02-25 16:31:00,71.0,55.0,-100.00,NNE,28,19.0,36.0,58,0.00,,,0.00,718.000000,,2013-02-26 02:31:00,
2013-02-25 17:01:00,70.0,57.0,-100.00,NNE,18,13.0,37.0,63,0.00,,,0.00,505.000000,,2013-02-26 03:01:00,
2013-02-25 17:11:00,70.0,57.0,-100.00,NNE,18,13.0,37.0,63,0.00,,,0.00,505.000000,,2013-02-26 03:11:00,
2013-02-25 17:21:00,70.0,57.0,-100.00,NNE,18,13.0,37.0,63,0.00,,,0.00,505.000000,,2013-02-26 03:21:00,
2013-02-25 17:31:00,70.0,57.0,-100.00,NNE,18,13.0,37.0,63,0.00,,,0.00,505.000000,,2013-02-26 03:31:00,
2013-02-25 18:01:00,67.0,57.0,-100.00,North,359,12.0,30.0,71,0.00,,,0.00,187.000000,,2013-02-26 04:01:00,
2013-02-25 18:11:00,67.0,57.0,-100.00,North,359,12.0,30.0,71,0.00,,,0.00,187.000000,,2013-02-26 04:11:00,
2013-02-25 18:21:00,67.0,57.0,-100.00,North,359,12.0,30.0,71,0.00,,,0.00,187.000000,,2013-02-26 04:21:00,
2013-02-25 18:31:00,67.0,57.0,-100.00,North,359,12.0,30.0,71,0.00,,,0.00,187.000000,,2013-02-26 04:31:00,
2013-02-25 19:01:00,66.0,57.0,-100.00,NNE,24,3.0,17.0,72,0.00,,,0.00,36.000000,,2013-02-26 05:01:00,
2013-02-25 19:11:00,66.0,57.0,-100.00,NNE,24,3.0,17.0,72,0.00,,,0.00,36.000000,,2013-02-26 05:11:00,
2013-02-25 19:21:00,66.0,57.0,-100.00,NNE,24,3.0,17.0,72,0.00,,,0.00,36.000000,,2013-02-26 05:21:00,
2013-02-25 19:31:00,66.0,57.0,-100.00,NNE,24,3.0,17.0,72,0.00,,,0.00,36.000000,,2013-02-26 05:31:00,
2013-02-25 20:01:00,63.0,56.0,-100.00,NW,308,2.0,9.0,79,0.00,,,0.00,0.000000,,2013-02-26 06:01:00,
2013-02-25 20:11:00,63.0,56.0,-100.00,NW,308,2.0,9.0,79,0.00,,,0.00,0.000000,,2013-02-26 06:11:00,
2013-02-25 20:21:00,63.0,56.0,-100.00,NW,308,2.0,9.0,79,0.00,,,0.00,0.000000,,2013-02-26 06:21:00,
2013-02-25 20:31:00,63.0,56.0,-100.00,NW,308,2.0,9.0,79,0.00,,,0.00,0.000000,,2013-02-26 06:31:00,
2013-02-25 21:01:00,61.0,55.0,-100.00,SSE,147,2.0,13.0,81,0.00,,,0.00,0.000000,,2013-02-26 07:01:00,
2013-02-25 21:11:00,61.0,55.0,-100.00,SSE,147,2.0,13.0,81,0.00,,,0.00,0.000000,,2013-02-26 07:11:00,
2013-02-25 21:22:00,61.0,55.0,-100.00,SSE,147,2.0,13.0,81,0.00,,,0.00,0.000000,,2013-02-26 07:22:00,
2013-02-25 21:31:00,61.0,55.0,-100.00,SSE,147,2.0,13.0,81,0.00,,,0.00,0.000000,,2013-02-26 07:31:00,
2013-02-25 21:52:00,61.0,54.0,-100.00,ESE,108,4.0,11.0,79,0.00,,,0.00,0.000000,,2013-02-26 07:52:00,
2013-02-25 22:01:00,61.0,54.0,-100.00,ESE,108,4.0,11.0,79,0.00,,,0.00,0.000000,,2013-02-26 08:01:00,
2013-02-25 22:11:00,61.0,54.0,-100.00,ESE,108,4.0,11.0,79,0.00,,,0.00,0.000000,,2013-02-26 08:11:00,
2013-02-25 22:21:00,61.0,54.0,-100.00,ESE,108,4.0,11.0,79,0.00,,,0.00,0.000000,,2013-02-26 08:21:00,
2013-02-25 22:31:00,61.0,54.0,-100.00,ESE,108,4.0,11.0,79,0.00,,,0.00,0.000000,,2013-02-26 08:31:00,
2013-02-25 22:52:00,60.0,53.0,-100.00,SE,139,4.0,12.0,77,0.00,,,0.00,0.000000,,2013-02-26 08:52:00,
2013-02-25 23:01:00,60.0,53.0,-100.00,SE,139,4.0,12.0,77,0.00,,,0.00,0.000000,,2013-02-26 09:01:00,
2013-02-25 23:11:00,60.0,53.0,-100.00,SE,139,4.0,12.0,77,0.00,,,0.00,0.000000,,2013-02-26 09:11:00,
2013-02-25 23:21:00,60.0,53.0,-100.00,SE,139,4.0,12.0,77,0.00,,,0.00,0.000000,,2013-02-26 09:21:00,
2013-02-25 23:31:00,60.0,53.0,-100.00,SE,139,4.0,12.0,77,0.00,,,0.00,0.000000,,2013-02-26 09:31:00,